createdAt,value
2022-10-06T00:00:07.183Z,84.93
2022-10-06T00:01:07.134Z,85.30
2022-10-06T00:02:07.237Z,85.10
2022-10-06T00:03:07.038Z,85.19
2022-10-06T00:04:07.023Z,85.19
2022-10-06T00:05:07.035Z,85.30
2022-10-06T00:06:07.031Z,85.10
2022-10-06T00:07:06.997Z,85.10
2022-10-06T00:08:10.002Z,85.30
2022-10-06T00:09:06.973Z,85.40
2022-10-06T00:10:06.979Z,84.99
2022-10-06T00:11:06.948Z,85.70
2022-10-06T00:12:06.940Z,85.40
2022-10-06T00:13:06.930Z,85.14
2022-10-06T00:14:06.945Z,84.89
2022-10-06T00:15:06.928Z,84.79
2022-10-06T00:16:06.938Z,84.79
2022-10-06T00:17:06.881Z,84.79
2022-10-06T00:18:06.888Z,85.10
2022-10-06T00:19:06.863Z,85.10
2022-10-06T00:20:06.847Z,84.79
2022-10-06T00:21:06.861Z,84.55
2022-10-06T00:22:06.827Z,84.85
2022-10-06T00:23:06.817Z,84.55
2022-10-06T00:24:06.825Z,84.65
2022-10-06T00:25:06.793Z,84.85
2022-10-06T00:26:06.784Z,84.99
2022-10-06T00:27:06.793Z,84.55
2022-10-06T00:28:06.812Z,84.85
2022-10-06T00:29:06.748Z,84.89
2022-10-06T00:30:06.736Z,85.05
2022-10-06T00:31:06.804Z,85.05
2022-10-06T00:32:06.732Z,85.16
2022-10-06T00:33:06.705Z,85.10
2022-10-06T00:34:06.700Z,85.10
2022-10-06T00:35:06.685Z,85.10
2022-10-06T00:36:06.671Z,84.79
2022-10-06T00:37:06.686Z,84.49
2022-10-06T00:38:06.653Z,84.59
2022-10-06T00:39:06.644Z,84.69
2022-10-06T00:40:06.625Z,84.89
2022-10-06T00:41:06.614Z,84.75
2022-10-06T00:42:06.629Z,84.89
2022-10-06T00:43:06.594Z,84.79
2022-10-06T00:44:06.606Z,85.30
2022-10-06T00:45:06.574Z,84.99
2022-10-06T00:46:06.670Z,84.89
2022-10-06T00:47:06.551Z,84.89
2022-10-06T00:48:06.554Z,84.85
2022-10-06T00:49:06.677Z,85.25
2022-10-06T00:50:06.522Z,85.05
2022-10-06T00:51:06.511Z,84.55
2022-10-06T00:52:06.514Z,85.16
2022-10-06T00:53:06.485Z,84.69
2022-10-06T00:54:06.472Z,84.99
2022-10-06T00:55:06.483Z,84.79
2022-10-06T00:56:06.448Z,85.10
2022-10-06T00:57:06.439Z,84.35
2022-10-06T00:58:06.426Z,84.89
2022-10-06T00:59:06.415Z,84.79
2022-10-06T01:00:06.428Z,84.65
2022-10-06T01:01:06.429Z,84.99
2022-10-06T01:02:06.405Z,84.85
2022-10-06T01:03:06.417Z,84.75
2022-10-06T01:04:06.375Z,84.95
2022-10-06T01:05:06.421Z,85.05
2022-10-06T01:06:06.337Z,84.75
2022-10-06T01:07:06.328Z,84.45
2022-10-06T01:08:06.339Z,85.25
2022-10-06T01:09:06.306Z,85.25
2022-10-06T01:10:06.293Z,84.85
2022-10-06T01:11:06.283Z,84.75
2022-10-06T01:12:06.274Z,84.65
2022-10-06T01:13:06.284Z,84.65
2022-10-06T01:14:06.281Z,86.47
2022-10-06T01:15:06.240Z,86.85
2022-10-06T01:16:06.277Z,88.31
2022-10-06T01:17:06.217Z,89.22
2022-10-06T01:18:06.210Z,89.06
2022-10-06T01:19:06.218Z,89.81
2022-10-06T01:20:06.210Z,90.45
2022-10-06T01:21:06.173Z,90.36
2022-10-06T01:22:06.188Z,90.40
2022-10-06T01:23:06.178Z,90.40
2022-10-06T01:24:06.143Z,90.50
2022-10-06T01:25:06.128Z,91.46
2022-10-06T01:26:06.117Z,91.35
2022-10-06T01:27:06.106Z,91.46
2022-10-06T01:28:06.180Z,91.75
2022-10-06T01:29:06.106Z,91.80
2022-10-06T01:30:06.073Z,91.96
2022-10-06T01:31:06.115Z,91.70
2022-10-06T01:32:06.051Z,91.39
2022-10-06T01:33:06.065Z,91.09
2022-10-06T01:34:06.051Z,91.90
2022-10-06T01:35:06.021Z,91.39
2022-10-06T01:36:06.020Z,91.80
2022-10-06T01:37:06.012Z,92.10
2022-10-06T01:38:06.074Z,92.14
2022-10-06T01:39:05.969Z,92.45
2022-10-06T01:40:06.003Z,92.86
2022-10-06T01:41:05.949Z,92.35
2022-10-06T01:42:05.939Z,92.65
2022-10-06T01:43:05.950Z,93.57
2022-10-06T01:44:05.918Z,92.55
2022-10-06T01:45:05.904Z,92.65
2022-10-06T01:46:05.935Z,92.35
2022-10-06T01:47:05.886Z,92.96
2022-10-06T01:48:06.107Z,93.37
2022-10-06T01:49:05.860Z,93.16
2022-10-06T01:50:05.852Z,93.37
2022-10-06T01:51:05.837Z,93.57
2022-10-06T01:52:05.856Z,93.67
2022-10-06T01:53:05.836Z,94.27
2022-10-06T01:54:05.826Z,94.78
2022-10-06T01:55:05.792Z,94.42
2022-10-06T01:56:05.786Z,94.62
2022-10-06T01:57:05.771Z,94.73
2022-10-06T01:58:05.765Z,94.77
2022-10-06T01:59:05.775Z,94.87
2022-10-06T02:00:05.739Z,94.67
2022-10-06T02:01:05.733Z,94.51
2022-10-06T02:02:05.885Z,93.60
2022-10-06T02:03:05.706Z,93.60
2022-10-06T02:04:05.801Z,93.84
2022-10-06T02:05:05.681Z,93.54
2022-10-06T02:06:05.841Z,93.48
2022-10-06T02:07:05.659Z,93.48
2022-10-06T02:08:05.722Z,93.59
2022-10-06T02:09:05.696Z,93.59
2022-10-06T02:10:05.627Z,93.68
2022-10-06T02:11:05.614Z,93.68
2022-10-06T02:12:05.604Z,92.77
2022-10-06T02:13:05.594Z,92.87
2022-10-06T02:14:05.605Z,92.82
2022-10-06T02:15:05.570Z,92.87
2022-10-06T02:16:05.603Z,92.82
2022-10-06T02:17:05.549Z,92.91
2022-10-06T02:18:05.537Z,92.21
2022-10-06T02:19:05.566Z,92.10
2022-10-06T02:20:05.514Z,92.10
2022-10-06T02:21:05.512Z,92.21
2022-10-06T02:22:05.493Z,92.61
2022-10-06T02:23:05.480Z,92.00
2022-10-06T02:24:05.507Z,92.21
2022-10-06T02:25:05.461Z,92.00
2022-10-06T02:26:05.457Z,92.21
2022-10-06T02:27:05.435Z,92.00
2022-10-06T02:28:05.534Z,92.51
2022-10-06T02:29:05.448Z,91.49
2022-10-06T02:30:05.453Z,91.80
2022-10-06T02:31:05.465Z,92.10
2022-10-06T02:32:05.380Z,91.49
2022-10-06T02:33:05.403Z,92.10
2022-10-06T02:34:05.362Z,92.00
2022-10-06T02:35:05.367Z,92.00
2022-10-06T02:36:05.365Z,92.21
2022-10-06T02:37:05.350Z,92.51
2022-10-06T02:38:05.312Z,92.21
2022-10-06T02:39:05.300Z,92.30
2022-10-06T02:40:05.329Z,92.10
2022-10-06T02:41:05.278Z,92.25
2022-10-06T02:42:05.288Z,92.51
2022-10-06T02:43:05.258Z,92.55
2022-10-06T02:44:05.282Z,92.30
2022-10-06T02:45:05.314Z,92.35
2022-10-06T02:46:05.292Z,91.80
2022-10-06T02:47:05.216Z,91.74
2022-10-06T02:48:05.201Z,91.84
2022-10-06T02:49:05.191Z,91.74
2022-10-06T02:50:05.204Z,91.64
2022-10-06T02:51:05.165Z,91.69
2022-10-06T02:52:05.162Z,91.94
2022-10-06T02:53:05.143Z,91.84
2022-10-06T02:54:05.142Z,92.21
2022-10-06T02:55:05.123Z,91.94
2022-10-06T02:56:05.150Z,91.84
2022-10-06T02:57:05.101Z,91.53
2022-10-06T02:58:05.089Z,92.55
2022-10-06T02:59:05.075Z,91.53
2022-10-06T03:00:05.087Z,91.74
2022-10-06T03:01:05.066Z,91.94
2022-10-06T03:02:05.247Z,91.94
2022-10-06T03:03:05.117Z,91.74
2022-10-06T03:04:05.025Z,92.25
2022-10-06T03:05:05.015Z,92.14
2022-10-06T03:06:05.004Z,91.84
2022-10-06T03:07:05.009Z,92.25
2022-10-06T03:08:04.982Z,92.14
2022-10-06T03:09:04.965Z,92.25
2022-10-06T03:10:04.971Z,92.65
2022-10-06T03:11:04.958Z,91.53
2022-10-06T03:12:05.050Z,91.94
2022-10-06T03:13:04.919Z,92.25
2022-10-06T03:14:04.930Z,92.25
2022-10-06T03:15:04.897Z,92.04
2022-10-06T03:16:04.940Z,92.76
2022-10-06T03:17:04.902Z,92.96
2022-10-06T03:18:04.868Z,92.86
2022-10-06T03:19:04.863Z,92.25
2022-10-06T03:20:04.946Z,92.35
2022-10-06T03:21:04.830Z,92.55
2022-10-06T03:22:04.843Z,92.45
2022-10-06T03:23:04.806Z,92.25
2022-10-06T03:24:04.798Z,92.86
2022-10-06T03:25:04.784Z,92.96
2022-10-06T03:26:04.776Z,92.76
2022-10-06T03:27:04.783Z,92.86
2022-10-06T03:28:04.835Z,93.06
2022-10-06T03:29:09.127Z,92.96
2022-10-06T03:30:05.728Z,93.47
2022-10-06T03:31:04.751Z,93.26
2022-10-06T03:32:04.730Z,93.06
2022-10-06T03:33:04.700Z,93.06
2022-10-06T03:34:04.692Z,92.90
2022-10-06T03:35:04.672Z,92.65
2022-10-06T03:36:04.708Z,93.67
2022-10-06T03:37:04.670Z,93.31
2022-10-06T03:38:04.649Z,92.90
2022-10-06T03:39:04.687Z,92.86
2022-10-06T03:40:04.622Z,93.01
2022-10-06T03:41:04.655Z,92.76
2022-10-06T03:42:04.596Z,92.96
2022-10-06T03:43:04.695Z,93.06
2022-10-06T03:44:04.613Z,92.86
2022-10-06T03:45:04.654Z,92.04
2022-10-06T03:46:04.554Z,92.25
2022-10-06T03:47:04.743Z,93.06
2022-10-06T03:48:04.550Z,93.06
2022-10-06T03:49:04.664Z,92.80
2022-10-06T03:50:04.506Z,92.80
2022-10-06T03:51:04.587Z,92.19
2022-10-06T03:52:04.482Z,92.09
2022-10-06T03:53:04.493Z,92.29
2022-10-06T03:54:04.489Z,92.09
2022-10-06T03:55:04.470Z,92.49
2022-10-06T03:56:04.439Z,92.80
2022-10-06T03:57:04.439Z,92.14
2022-10-06T03:58:04.417Z,92.19
2022-10-06T03:59:04.429Z,92.09
2022-10-06T04:00:04.408Z,92.49
2022-10-06T04:01:04.445Z,92.19
2022-10-06T04:02:04.438Z,92.80
2022-10-06T04:03:04.366Z,92.40
2022-10-06T04:04:04.371Z,92.55
2022-10-06T04:05:04.338Z,92.55
2022-10-06T04:06:04.325Z,92.49
2022-10-06T04:07:04.783Z,92.60
2022-10-06T04:08:04.304Z,92.80
2022-10-06T04:09:04.294Z,92.14
2022-10-06T04:10:04.281Z,92.09
2022-10-06T04:11:04.291Z,92.76
2022-10-06T04:12:04.258Z,92.60
2022-10-06T04:13:04.250Z,93.01
2022-10-06T04:14:04.257Z,92.19
2022-10-06T04:15:04.251Z,92.29
2022-10-06T04:16:04.290Z,92.80
2022-10-06T04:17:04.202Z,92.80
2022-10-06T04:18:04.191Z,92.55
2022-10-06T04:19:04.189Z,92.60
2022-10-06T04:20:04.189Z,92.04
2022-10-06T04:21:04.166Z,91.33
2022-10-06T04:22:04.151Z,92.14
2022-10-06T04:23:04.136Z,92.04
2022-10-06T04:24:04.122Z,91.74
2022-10-06T04:25:04.138Z,91.84
2022-10-06T04:26:04.101Z,91.74
2022-10-06T04:27:04.091Z,92.14
2022-10-06T04:28:04.129Z,91.84
2022-10-06T04:29:04.068Z,91.43
2022-10-06T04:30:04.079Z,91.53
2022-10-06T04:31:04.047Z,91.43
2022-10-06T04:32:04.075Z,90.62
2022-10-06T04:33:04.032Z,90.72
2022-10-06T04:34:04.011Z,90.83
2022-10-06T04:35:04.022Z,90.72
2022-10-06T04:36:03.989Z,91.23
2022-10-06T04:37:03.981Z,91.03
2022-10-06T04:38:03.970Z,91.74
2022-10-06T04:39:03.957Z,91.03
2022-10-06T04:40:03.970Z,91.13
2022-10-06T04:41:03.956Z,90.72
2022-10-06T04:42:03.922Z,90.52
2022-10-06T04:43:03.912Z,90.42
2022-10-06T04:44:03.903Z,90.66
2022-10-06T04:45:03.892Z,90.83
2022-10-06T04:46:18.203Z,90.66
2022-10-06T04:47:05.076Z,90.52
2022-10-06T04:48:03.872Z,90.72
2022-10-06T04:49:03.847Z,90.56
2022-10-06T04:50:03.833Z,90.25
2022-10-06T04:51:03.844Z,90.66
2022-10-06T04:52:03.810Z,90.97
2022-10-06T04:53:03.823Z,90.36
2022-10-06T04:54:03.792Z,91.22
2022-10-06T04:55:03.799Z,90.91
2022-10-06T04:56:03.766Z,91.11
2022-10-06T04:57:03.756Z,91.31
2022-10-06T04:58:03.746Z,91.52
2022-10-06T04:59:03.736Z,91.83
2022-10-06T05:00:08.906Z,91.22
2022-10-06T05:01:04.774Z,91.42
2022-10-06T05:02:03.783Z,91.11
2022-10-06T05:03:03.692Z,91.31
2022-10-06T05:04:03.695Z,91.11
2022-10-06T05:05:03.676Z,91.11
2022-10-06T05:06:03.656Z,91.42
2022-10-06T05:07:03.868Z,91.31
2022-10-06T05:08:03.633Z,91.52
2022-10-06T05:09:03.622Z,91.31
2022-10-06T05:10:03.613Z,91.36
2022-10-06T05:11:03.602Z,91.87
2022-10-06T05:12:03.863Z,91.77
2022-10-06T05:13:03.581Z,90.95
2022-10-06T05:14:03.572Z,91.97
2022-10-06T05:15:03.574Z,90.95
2022-10-06T05:16:03.591Z,91.56
2022-10-06T05:17:03.556Z,91.87
2022-10-06T05:18:03.526Z,91.77
2022-10-06T05:19:03.512Z,91.56
2022-10-06T05:20:03.514Z,91.87
2022-10-06T05:21:06.640Z,91.66
2022-10-06T05:22:03.592Z,91.56
2022-10-06T05:23:03.469Z,91.30
2022-10-06T05:24:03.481Z,92.01
2022-10-06T05:25:03.446Z,92.01
2022-10-06T05:26:03.433Z,90.99
2022-10-06T05:27:03.442Z,91.30
2022-10-06T05:28:03.474Z,91.81
2022-10-06T05:29:03.426Z,91.61
2022-10-06T05:30:03.415Z,91.24
2022-10-06T05:31:03.377Z,91.55
2022-10-06T05:32:03.510Z,91.55
2022-10-06T05:33:03.355Z,91.44
2022-10-06T05:34:03.352Z,91.65
2022-10-06T05:35:03.355Z,91.96
2022-10-06T05:36:03.337Z,91.55
2022-10-06T05:37:03.328Z,91.75
2022-10-06T05:38:03.304Z,92.20
2022-10-06T05:39:03.321Z,92.16
2022-10-06T05:40:03.279Z,91.85
2022-10-06T05:41:03.269Z,91.89
2022-10-06T05:42:03.274Z,92.20
2022-10-06T05:43:03.272Z,92.05
2022-10-06T05:44:03.233Z,92.20
2022-10-06T05:45:03.222Z,91.89
2022-10-06T05:46:03.314Z,92.00
2022-10-06T05:47:03.220Z,91.85
2022-10-06T05:48:03.187Z,91.65
2022-10-06T05:49:03.217Z,91.75
2022-10-06T05:50:03.168Z,92.16
2022-10-06T05:51:03.177Z,92.50
2022-10-06T05:52:03.185Z,92.46
2022-10-06T05:53:03.133Z,92.26
2022-10-06T05:54:03.131Z,92.46
2022-10-06T05:55:03.133Z,92.26
2022-10-06T05:56:03.107Z,92.36
2022-10-06T05:57:03.220Z,92.46
2022-10-06T05:58:03.099Z,92.16
2022-10-06T05:59:03.101Z,92.77
2022-10-06T06:00:03.056Z,92.57
2022-10-06T06:01:03.045Z,92.10
2022-10-06T06:02:03.114Z,91.55
2022-10-06T06:03:03.085Z,91.69
2022-10-06T06:04:03.057Z,91.96
2022-10-06T06:05:03.002Z,91.79
2022-10-06T06:06:02.989Z,92.00
2022-10-06T06:07:02.987Z,91.89
2022-10-06T06:08:03.037Z,92.00
2022-10-06T06:09:02.980Z,92.20
2022-10-06T06:10:02.944Z,92.50
2022-10-06T06:11:02.933Z,92.10
2022-10-06T06:12:02.924Z,92.41
2022-10-06T06:13:02.911Z,92.71
2022-10-06T06:14:02.900Z,92.50
2022-10-06T06:15:02.914Z,92.50
2022-10-06T06:16:02.876Z,92.00
2022-10-06T06:17:02.953Z,92.14
2022-10-06T06:18:02.856Z,92.91
2022-10-06T06:19:02.866Z,92.50
2022-10-06T06:20:02.835Z,91.89
2022-10-06T06:21:02.822Z,91.83
2022-10-06T06:22:02.813Z,92.04
2022-10-06T06:23:02.828Z,92.35
2022-10-06T06:24:02.807Z,92.04
2022-10-06T06:25:02.780Z,92.10
2022-10-06T06:26:02.940Z,92.20
2022-10-06T06:27:02.757Z,92.41
2022-10-06T06:28:02.816Z,92.41
2022-10-06T06:29:02.775Z,92.30
2022-10-06T06:30:02.736Z,92.10
2022-10-06T06:31:02.788Z,92.30
2022-10-06T06:32:02.702Z,92.10
2022-10-06T06:33:02.689Z,92.61
2022-10-06T06:34:02.706Z,92.67
2022-10-06T06:35:02.667Z,92.46
2022-10-06T06:36:02.654Z,92.77
2022-10-06T06:37:07.555Z,92.36
2022-10-06T06:38:03.651Z,90.89
2022-10-06T06:39:02.626Z,91.50
2022-10-06T06:40:02.656Z,91.75
2022-10-06T06:41:02.600Z,92.01
2022-10-06T06:42:02.610Z,91.09
2022-10-06T06:43:02.587Z,91.91
2022-10-06T06:44:02.565Z,91.66
2022-10-06T06:45:02.558Z,91.91
2022-10-06T06:46:02.642Z,90.79
2022-10-06T06:47:02.555Z,90.79
2022-10-06T06:48:02.542Z,90.44
2022-10-06T06:49:02.512Z,90.75
2022-10-06T06:50:02.521Z,90.75
2022-10-06T06:51:02.511Z,90.44
2022-10-06T06:52:02.478Z,89.63
2022-10-06T06:53:02.515Z,90.03
2022-10-06T06:54:02.457Z,89.63
2022-10-06T06:55:02.466Z,89.83
2022-10-06T06:56:02.485Z,90.55
2022-10-06T06:57:02.427Z,90.24
2022-10-06T06:58:02.411Z,90.60
2022-10-06T06:59:02.400Z,90.70
2022-10-06T07:00:02.386Z,91.01
2022-10-06T07:01:02.458Z,90.25
2022-10-06T07:02:02.433Z,89.54
2022-10-06T07:03:02.354Z,89.81
2022-10-06T07:04:02.404Z,89.54
2022-10-06T07:05:02.334Z,89.61
2022-10-06T07:06:02.341Z,88.79
2022-10-06T07:07:02.311Z,88.59
2022-10-06T07:08:02.299Z,89.20
2022-10-06T07:09:02.313Z,87.87
2022-10-06T07:10:02.298Z,87.41
2022-10-06T07:11:02.267Z,88.08
2022-10-06T07:12:02.272Z,87.73
2022-10-06T07:13:02.242Z,87.32
2022-10-06T07:14:02.232Z,87.23
2022-10-06T07:15:02.240Z,86.82
2022-10-06T07:16:02.254Z,86.10
2022-10-06T07:17:02.198Z,85.80
2022-10-06T07:18:02.185Z,85.70
2022-10-06T07:19:02.175Z,85.39
2022-10-06T07:20:02.190Z,85.80
2022-10-06T07:21:02.153Z,85.33
2022-10-06T07:22:02.141Z,86.04
2022-10-06T07:23:02.132Z,85.94
2022-10-06T07:24:02.118Z,86.15
2022-10-06T07:25:02.128Z,86.55
2022-10-06T07:26:02.094Z,86.35
2022-10-06T07:27:02.084Z,85.43
2022-10-06T07:28:02.251Z,85.29
2022-10-06T07:29:02.395Z,85.70
2022-10-06T07:30:02.056Z,84.99
2022-10-06T07:31:02.185Z,85.46
2022-10-06T07:32:02.033Z,84.44
2022-10-06T07:33:02.023Z,84.74
2022-10-06T07:34:02.009Z,83.93
2022-10-06T07:35:02.020Z,84.23
2022-10-06T07:36:01.985Z,83.79
2022-10-06T07:37:04.175Z,83.38
2022-10-06T07:38:01.960Z,82.43
2022-10-06T07:39:01.985Z,82.23
2022-10-06T07:40:01.973Z,82.23
2022-10-06T07:42:02.918Z,83.14
2022-10-06T07:43:01.912Z,82.23
2022-10-06T07:44:07.148Z,82.23
2022-10-06T07:45:02.882Z,82.29
2022-10-06T07:46:01.950Z,83.14
2022-10-06T07:47:01.865Z,82.94
2022-10-06T07:48:01.848Z,82.90
2022-10-06T07:49:01.858Z,83.61
2022-10-06T07:50:01.827Z,83.91
2022-10-06T07:51:01.817Z,83.40
2022-10-06T07:52:01.804Z,80.66
2022-10-06T07:53:01.793Z,80.87
2022-10-06T07:54:01.812Z,81.78
2022-10-06T07:55:01.771Z,81.78
2022-10-06T07:56:01.758Z,81.85
2022-10-06T07:57:01.747Z,81.95
2022-10-06T07:58:01.735Z,81.68
2022-10-06T07:59:01.748Z,80.87
2022-10-06T08:00:03.342Z,80.46
2022-10-06T08:01:01.711Z,80.83
2022-10-06T08:02:01.822Z,82.05
2022-10-06T08:03:01.738Z,80.02
2022-10-06T08:04:01.689Z,80.59
2022-10-06T08:05:01.668Z,79.27
2022-10-06T08:06:01.654Z,79.27
2022-10-06T08:07:01.634Z,79.98
2022-10-06T08:08:01.627Z,78.83
2022-10-06T08:09:01.637Z,78.33
2022-10-06T08:10:01.607Z,78.16
2022-10-06T08:11:02.089Z,78.42
2022-10-06T08:12:01.582Z,78.12
2022-10-06T08:13:01.584Z,78.69
2022-10-06T08:14:01.601Z,77.07
2022-10-06T08:15:04.550Z,77.88
2022-10-06T08:16:02.577Z,75.42
2022-10-06T08:17:01.531Z,74.44
2022-10-06T08:18:01.516Z,74.51
2022-10-06T08:19:01.533Z,74.40
2022-10-06T08:20:01.496Z,74.13
2022-10-06T08:21:01.480Z,74.33
2022-10-06T08:22:04.794Z,75.08
2022-10-06T08:23:01.477Z,75.04
2022-10-06T08:24:01.581Z,75.15
2022-10-06T08:25:06.185Z,74.95
2022-10-06T08:26:02.425Z,75.42
2022-10-06T08:27:01.414Z,73.80
2022-10-06T08:28:01.507Z,74.40
2022-10-06T08:29:01.411Z,73.86
2022-10-06T08:30:01.383Z,75.34
2022-10-06T08:31:01.411Z,72.81
2022-10-06T08:32:01.760Z,72.41
2022-10-06T08:33:01.349Z,72.31
2022-10-06T08:34:01.369Z,72.68
2022-10-06T08:35:01.326Z,72.99
2022-10-06T08:36:01.316Z,73.69
2022-10-06T08:37:19.395Z,72.38
2022-10-06T08:38:02.293Z,72.72
2022-10-06T08:39:01.431Z,72.11
2022-10-06T08:40:01.283Z,72.11
2022-10-06T08:41:01.284Z,72.11
2022-10-06T08:42:01.249Z,71.53
2022-10-06T08:43:01.242Z,71.80
2022-10-06T08:44:01.432Z,72.81
2022-10-06T08:45:01.216Z,73.63
2022-10-06T08:46:01.208Z,72.41
2022-10-06T08:47:01.203Z,72.61
2022-10-06T08:48:01.202Z,71.91
2022-10-06T08:49:01.191Z,71.80
2022-10-06T08:50:01.159Z,72.01
2022-10-06T08:51:01.190Z,72.85
2022-10-06T08:52:01.137Z,71.80
2022-10-06T08:53:01.145Z,72.55
2022-10-06T08:54:01.144Z,72.44
2022-10-06T08:55:01.102Z,73.29
2022-10-06T08:56:01.094Z,72.92
2022-10-06T08:57:01.079Z,72.88
2022-10-06T08:58:01.218Z,73.56
2022-10-06T08:59:01.058Z,72.34
2022-10-06T09:00:01.057Z,72.28
2022-10-06T09:01:01.099Z,72.38
2022-10-06T09:02:01.120Z,72.78
2022-10-06T09:03:01.032Z,72.78
2022-10-06T09:04:01.024Z,72.14
2022-10-06T09:05:00.998Z,71.64
2022-10-06T09:06:00.981Z,70.83
2022-10-06T09:07:00.968Z,71.91
2022-10-06T09:08:00.979Z,71.60
2022-10-06T09:09:00.950Z,71.40
2022-10-06T09:10:00.938Z,71.30
2022-10-06T09:11:00.925Z,71.67
2022-10-06T09:12:00.934Z,71.06
2022-10-06T09:13:00.917Z,71.67
2022-10-06T09:14:00.891Z,71.60
2022-10-06T09:15:00.896Z,71.64
2022-10-06T09:16:00.915Z,71.64
2022-10-06T09:17:00.893Z,72.48
2022-10-06T09:18:00.865Z,72.21
2022-10-06T09:19:08.651Z,72.61
2022-10-06T09:20:01.839Z,72.45
2022-10-06T09:21:00.817Z,73.16
2022-10-06T09:22:00.828Z,72.65
2022-10-06T09:23:00.788Z,73.09
2022-10-06T09:24:00.801Z,72.89
2022-10-06T09:25:00.766Z,73.09
2022-10-06T09:26:00.764Z,73.05
2022-10-06T09:27:00.745Z,73.16
2022-10-06T09:28:00.818Z,73.16
2022-10-06T09:29:00.722Z,73.12
2022-10-06T09:30:00.732Z,73.69
2022-10-06T09:31:00.741Z,73.46
2022-10-06T09:32:00.689Z,72.58
2022-10-06T09:33:00.683Z,73.56
2022-10-06T09:34:00.668Z,72.48
2022-10-06T09:35:00.677Z,72.58
2022-10-06T09:36:00.664Z,72.52
2022-10-06T09:37:01.951Z,72.41
2022-10-06T09:38:04.374Z,72.34
2022-10-06T09:39:01.617Z,73.46
2022-10-06T09:40:00.628Z,73.32
2022-10-06T09:41:00.613Z,73.63
2022-10-06T09:42:00.610Z,74.17
2022-10-06T09:43:00.566Z,72.92
2022-10-06T09:44:00.556Z,73.32
2022-10-06T09:45:00.563Z,72.14
2022-10-06T09:46:00.576Z,73.05
2022-10-06T09:47:00.543Z,74.17
2022-10-06T09:48:00.515Z,74.00
2022-10-06T09:49:00.502Z,73.49
2022-10-06T09:50:00.494Z,73.90
2022-10-06T09:51:00.477Z,75.32
2022-10-06T09:52:00.555Z,74.61
2022-10-06T09:53:00.477Z,75.42
2022-10-06T09:54:00.446Z,75.35
2022-10-06T09:55:00.434Z,75.25
2022-10-06T09:56:00.424Z,75.22
2022-10-06T09:57:00.412Z,74.81
2022-10-06T09:58:00.425Z,74.30
2022-10-06T09:59:00.392Z,75.01
2022-10-06T10:00:00.480Z,75.73
2022-10-06T10:01:00.578Z,75.52
2022-10-06T10:02:00.465Z,75.42
2022-10-06T10:03:00.459Z,75.42
2022-10-06T10:04:20.578Z,75.12
2022-10-06T10:05:01.322Z,75.12
2022-10-06T10:06:00.314Z,75.69
2022-10-06T10:07:00.354Z,73.32
2022-10-06T10:08:00.305Z,72.75
2022-10-06T10:09:00.303Z,72.31
2022-10-06T10:10:00.276Z,71.37
2022-10-06T10:11:00.276Z,71.06
2022-10-06T10:12:00.365Z,70.42
2022-10-06T10:13:00.246Z,69.98
2022-10-06T10:14:00.250Z,71.40
2022-10-06T10:15:00.219Z,70.32
2022-10-06T10:16:00.257Z,69.59
2022-10-06T10:17:00.210Z,69.75
2022-10-06T10:18:00.182Z,68.27
2022-10-06T10:19:00.170Z,68.30
2022-10-06T10:20:00.520Z,67.93
2022-10-06T10:21:00.173Z,68.95
2022-10-06T10:22:00.296Z,68.27
2022-10-06T10:23:00.129Z,68.40
2022-10-06T10:24:00.135Z,68.27
2022-10-06T10:25:00.108Z,69.11
2022-10-06T10:26:00.095Z,69.51
2022-10-06T10:27:00.104Z,68.91
2022-10-06T10:28:00.174Z,69.31
2022-10-06T10:29:00.057Z,69.92
2022-10-06T10:30:00.163Z,70.36
2022-10-06T10:31:00.120Z,70.29
2022-10-06T10:32:00.038Z,70.39
2022-10-06T10:33:00.037Z,71.23
2022-10-06T10:34:11.947Z,69.41
2022-10-06T10:35:01.011Z,70.25
2022-10-06T10:35:59.982Z,70.56
2022-10-06T10:36:59.969Z,71.00
2022-10-06T10:37:59.958Z,72.11
2022-10-06T10:38:59.967Z,73.02
2022-10-06T10:39:59.952Z,72.81
2022-10-06T10:40:59.924Z,72.61
2022-10-06T10:41:59.914Z,71.94
2022-10-06T10:42:59.926Z,70.69
2022-10-06T10:44:04.010Z,70.53
2022-10-06T10:45:00.180Z,70.09
2022-10-06T10:45:59.875Z,69.65
2022-10-06T10:46:59.900Z,68.21
2022-10-06T10:47:59.869Z,66.19
2022-10-06T10:48:59.857Z,68.27
2022-10-06T10:49:59.830Z,68.24
2022-10-06T10:50:59.811Z,66.60
2022-10-06T10:51:59.802Z,65.46
2022-10-06T10:52:59.790Z,65.26
2022-10-06T10:53:59.803Z,63.92
2022-10-06T10:55:00.204Z,63.24
2022-10-06T10:55:59.789Z,63.24
2022-10-06T10:56:59.771Z,63.34
2022-10-06T10:57:59.736Z,64.02
2022-10-06T10:58:59.722Z,64.22
2022-10-06T10:59:59.715Z,63.95
2022-10-06T11:00:59.751Z,63.65
2022-10-06T11:01:59.752Z,64.15
2022-10-06T11:02:59.679Z,64.58
2022-10-06T11:03:59.671Z,65.32
2022-10-06T11:05:00.128Z,65.05
2022-10-06T11:05:59.674Z,65.48
2022-10-06T11:06:59.638Z,66.93
2022-10-06T11:07:59.645Z,67.13
2022-10-06T11:08:59.633Z,68.21
2022-10-06T11:09:59.605Z,66.42
2022-10-06T11:10:59.610Z,66.79
2022-10-06T11:11:59.617Z,66.36
2022-10-06T11:12:59.568Z,66.99
2022-10-06T11:13:59.581Z,68.84
2022-10-06T11:15:00.208Z,67.60
2022-10-06T11:15:59.598Z,66.29
2022-10-06T11:16:59.524Z,65.65
2022-10-06T11:17:59.519Z,66.53
2022-10-06T11:18:59.526Z,64.72
2022-10-06T11:19:59.515Z,63.40
2022-10-06T11:20:59.479Z,63.57
2022-10-06T11:21:59.531Z,63.57
2022-10-06T11:22:59.460Z,63.04
2022-10-06T11:23:59.471Z,62.74
2022-10-06T11:24:59.847Z,63.75
2022-10-06T11:25:59.427Z,63.21
2022-10-06T11:26:59.432Z,63.11
2022-10-06T11:27:59.470Z,62.38
2022-10-06T11:28:59.390Z,63.15
2022-10-06T11:29:59.796Z,62.24
2022-10-06T11:30:59.368Z,61.44
2022-10-06T11:31:59.501Z,60.51
2022-10-06T11:32:59.346Z,61.31
2022-10-06T11:33:59.336Z,62.22
2022-10-06T11:34:59.326Z,60.58
2022-10-06T11:35:59.316Z,61.18
2022-10-06T11:36:59.324Z,60.45
2022-10-06T11:37:59.293Z,60.05
2022-10-06T11:38:59.286Z,59.65
2022-10-06T11:39:59.656Z,59.85
2022-10-06T11:40:59.257Z,59.34
2022-10-06T11:41:59.274Z,59.88
2022-10-06T11:42:59.235Z,59.67
2022-10-06T11:43:59.245Z,60.81
2022-10-06T11:44:59.470Z,61.14
2022-10-06T11:45:59.277Z,60.36
2022-10-06T11:46:59.301Z,61.30
2022-10-06T11:47:59.203Z,61.93
2022-10-06T11:48:59.174Z,62.26
2022-10-06T11:49:59.160Z,62.13
2022-10-06T11:50:59.154Z,63.47
2022-10-06T11:52:00.948Z,62.06
2022-10-06T11:52:59.126Z,60.72
2022-10-06T11:53:59.119Z,62.34
2022-10-06T11:54:59.512Z,61.05
2022-10-06T11:55:59.094Z,61.66
2022-10-06T11:56:59.084Z,62.19
2022-10-06T11:57:59.078Z,62.43
2022-10-06T11:58:59.060Z,62.32
2022-10-06T11:59:59.100Z,62.32
2022-10-06T12:00:59.043Z,60.91
2022-10-06T12:01:59.187Z,61.49
2022-10-06T12:02:59.107Z,62.63
2022-10-06T12:03:59.005Z,62.32
2022-10-06T12:04:59.314Z,63.53
2022-10-06T12:05:59.007Z,62.80
2022-10-06T12:06:59.067Z,63.81
2022-10-06T12:07:58.962Z,63.50
2022-10-06T12:08:58.951Z,62.43
2022-10-06T12:09:58.943Z,61.89
2022-10-06T12:10:58.947Z,62.83
2022-10-06T12:11:58.919Z,61.69
2022-10-06T12:13:08.067Z,61.08
2022-10-06T12:17:05.513Z,61.16
2022-10-06T12:17:19.339Z,59.95
2022-10-06T12:17:59.850Z,59.82
2022-10-06T12:18:58.861Z,60.42
2022-10-06T12:19:58.829Z,59.92
2022-10-06T12:20:58.840Z,60.29
2022-10-06T12:21:58.809Z,59.11
2022-10-06T12:22:58.795Z,58.58
2022-10-06T12:23:58.782Z,58.31
2022-10-06T12:24:59.194Z,58.71
2022-10-06T12:25:58.829Z,59.31
2022-10-06T12:26:58.774Z,59.08
2022-10-06T12:27:58.833Z,59.39
2022-10-06T12:28:58.737Z,59.39
2022-10-06T12:29:59.106Z,59.39
2022-10-06T12:30:58.796Z,59.19
2022-10-06T12:31:58.761Z,58.18
2022-10-06T12:32:58.690Z,57.60
2022-10-06T12:33:58.688Z,57.90
2022-10-06T12:34:59.045Z,59.42
2022-10-06T12:35:58.654Z,60.65
2022-10-06T12:36:58.662Z,59.97
2022-10-06T12:37:58.627Z,59.55
2022-10-06T12:38:58.622Z,59.95
2022-10-06T12:39:58.607Z,60.25
2022-10-06T12:40:58.618Z,59.14
2022-10-06T12:41:58.585Z,59.42
2022-10-06T12:42:58.577Z,60.22
2022-10-06T12:43:58.561Z,61.43
2022-10-06T12:44:58.884Z,59.92
2022-10-06T12:45:58.683Z,60.72
2022-10-06T12:46:58.551Z,60.02
2022-10-06T12:47:58.535Z,60.19
2022-10-06T12:48:58.529Z,59.39
2022-10-06T12:49:58.496Z,58.98
2022-10-06T12:50:58.485Z,58.11
2022-10-06T12:52:00.665Z,58.91
2022-10-06T12:52:59.485Z,58.51
2022-10-06T12:53:58.455Z,59.11
2022-10-06T12:54:58.780Z,58.11